createdAt,value
2022-10-24T00:01:14.653Z,31.03
2022-10-24T00:03:41.527Z,26.57
2022-10-24T00:06:09.914Z,24.53
2022-10-24T00:08:38.082Z,22.30
2022-10-24T00:11:10.771Z,20.33
2022-10-24T00:13:38.296Z,26.20
2022-10-24T00:16:05.701Z,25.93
2022-10-24T00:18:32.523Z,23.37
2022-10-24T00:20:59.392Z,23.20
2022-10-24T00:23:26.229Z,25.17
2022-10-24T00:25:53.187Z,24.37
2022-10-24T00:28:20.029Z,22.77
2022-10-24T00:30:51.649Z,23.83
2022-10-24T00:33:19.057Z,19.00
2022-10-24T00:35:46.149Z,22.67
2022-10-24T00:38:12.993Z,20.17
2022-10-24T00:40:40.034Z,20.80
2022-10-24T00:43:18.193Z,22.43
2022-10-24T00:45:55.207Z,19.93
2022-10-24T00:48:24.325Z,26.07
2022-10-24T00:50:55.483Z,21.57
2022-10-24T00:53:23.763Z,19.43
2022-10-24T00:55:53.637Z,22.93
2022-10-24T00:58:23.236Z,21.90
2022-10-24T01:00:50.163Z,23.60
2022-10-24T01:03:17.807Z,22.70
2022-10-24T01:06:18.017Z,23.97
2022-10-24T01:09:03.576Z,22.83
2022-10-24T01:11:38.810Z,29.73
2022-10-24T01:14:30.566Z,24.10
2022-10-24T01:17:00.181Z,23.47
2022-10-24T01:20:00.833Z,21.87
2022-10-24T01:22:43.186Z,23.87
2022-10-24T01:25:29.763Z,37.97
2022-10-24T01:27:58.368Z,53.27
2022-10-24T01:30:25.746Z,23.30
2022-10-24T01:32:58.788Z,22.57
2022-10-24T01:38:02.926Z,20.97
2022-10-24T01:40:45.499Z,27.87
2022-10-24T01:43:15.434Z,28.33
2022-10-24T01:45:46.586Z,21.03
2022-10-24T01:48:19.958Z,23.17
2022-10-24T01:50:51.983Z,22.58
2022-10-24T01:53:22.539Z,21.00
2022-10-24T01:55:51.982Z,20.37
2022-10-24T01:58:19.078Z,20.57
2022-10-24T02:00:48.591Z,21.60
2022-10-24T02:03:48.265Z,20.30
2022-10-24T02:06:30.123Z,18.57
2022-10-24T02:09:01.394Z,20.07
2022-10-24T02:11:28.375Z,17.30
2022-10-24T02:14:10.774Z,22.13
2022-10-24T02:16:37.877Z,22.10
2022-10-24T02:19:05.175Z,19.97
2022-10-24T02:21:43.906Z,26.27
2022-10-24T02:24:32.408Z,20.20
2022-10-24T02:27:14.258Z,19.63
2022-10-24T02:30:12.908Z,28.13
2022-10-24T02:32:42.998Z,21.10
2022-10-24T02:35:13.077Z,21.93
2022-10-24T02:37:44.407Z,23.80
2022-10-24T02:40:14.164Z,19.20
2022-10-24T02:42:43.496Z,23.80
2022-10-24T02:45:12.211Z,22.60
2022-10-24T02:47:41.612Z,24.50
2022-10-24T02:50:09.549Z,20.03
2022-10-24T02:52:38.951Z,20.40
2022-10-24T02:55:07.090Z,20.67
2022-10-24T02:57:33.938Z,18.63
2022-10-24T03:00:04.588Z,19.40
2022-10-24T03:02:31.398Z,20.87
2022-10-24T03:04:58.279Z,22.03
2022-10-24T03:07:25.103Z,26.40
2022-10-24T03:09:51.951Z,20.33
2022-10-24T03:12:19.164Z,26.73
2022-10-24T03:14:45.979Z,20.37
2022-10-24T03:17:12.862Z,22.90
2022-10-24T03:19:39.643Z,22.43
2022-10-24T03:22:06.550Z,19.57
2022-10-24T03:24:43.711Z,25.30
2022-10-24T03:27:20.117Z,27.53
2022-10-24T03:29:47.019Z,22.53
2022-10-24T03:32:13.906Z,20.70
2022-10-24T03:34:40.770Z,23.93
2022-10-24T03:37:07.640Z,21.93
2022-10-24T03:39:34.631Z,23.23
2022-10-24T03:42:01.513Z,23.43
2022-10-24T03:44:28.954Z,23.73
2022-10-24T03:46:55.806Z,21.07
2022-10-24T03:49:22.748Z,20.17
2022-10-24T03:51:49.559Z,21.37
2022-10-24T03:54:17.914Z,20.60
2022-10-24T03:56:45.387Z,22.23
2022-10-24T03:59:12.243Z,20.33
2022-10-24T04:01:39.164Z,24.30
2022-10-24T04:04:06.039Z,21.37
2022-10-24T04:06:36.293Z,25.20
2022-10-24T04:09:04.831Z,23.27
2022-10-24T04:11:31.807Z,23.67
2022-10-24T04:16:34.893Z,24.90
2022-10-24T04:19:02.055Z,26.60
2022-10-24T04:21:28.865Z,24.30
2022-10-24T04:23:55.705Z,21.03
2022-10-24T04:26:22.862Z,17.67
2022-10-24T04:28:49.886Z,25.43
2022-10-24T04:31:19.475Z,22.20
2022-10-24T04:33:49.461Z,32.37
2022-10-24T04:36:16.348Z,24.00
2022-10-24T04:38:43.121Z,19.00
2022-10-24T04:41:12.041Z,22.97
2022-10-24T04:43:39.743Z,22.53
2022-10-24T04:46:06.851Z,23.70
2022-10-24T04:48:34.073Z,21.70
2022-10-24T04:51:01.122Z,22.43
2022-10-24T04:53:28.317Z,20.03
2022-10-24T04:55:55.195Z,20.13
2022-10-24T04:58:22.060Z,29.70
2022-10-24T05:00:50.349Z,23.33
2022-10-24T05:03:18.363Z,21.17
2022-10-24T05:05:46.485Z,25.60
2022-10-24T05:08:13.352Z,22.60
2022-10-24T05:10:40.211Z,19.90
2022-10-24T05:13:07.587Z,25.17
2022-10-24T05:15:34.479Z,21.10
2022-10-24T05:18:01.355Z,21.60
2022-10-24T05:20:28.613Z,26.07
2022-10-24T05:22:55.641Z,22.50
2022-10-24T05:25:22.869Z,20.57
2022-10-24T05:27:49.790Z,19.93
2022-10-24T05:30:17.104Z,19.73
2022-10-24T05:32:44.522Z,23.13
2022-10-24T05:35:11.651Z,20.57
2022-10-24T05:37:39.206Z,21.23
2022-10-24T05:40:10.828Z,28.83
2022-10-24T05:42:38.792Z,23.87
2022-10-24T05:45:10.494Z,23.57
2022-10-24T05:47:37.506Z,24.73
2022-10-24T05:50:05.942Z,24.93
2022-10-24T05:52:32.800Z,26.30
2022-10-24T05:55:07.924Z,23.03
2022-10-24T05:57:36.732Z,25.20
2022-10-24T06:00:09.006Z,25.33
2022-10-24T06:02:35.970Z,20.80
2022-10-24T06:05:03.262Z,24.93
2022-10-24T06:07:31.560Z,22.37
2022-10-24T06:09:58.690Z,24.43
2022-10-24T06:12:25.498Z,27.97
2022-10-24T06:14:56.473Z,18.97
2022-10-24T06:17:23.456Z,24.93
2022-10-24T06:19:51.166Z,24.83
2022-10-24T06:22:19.345Z,24.00
2022-10-24T06:24:46.393Z,24.70
2022-10-24T06:27:13.877Z,30.40
2022-10-24T06:29:40.653Z,30.33
2022-10-24T06:32:08.180Z,28.57
2022-10-24T06:34:35.594Z,23.97
2022-10-24T06:37:02.939Z,23.83
2022-10-24T06:39:29.887Z,23.63
2022-10-24T06:41:56.775Z,22.20
2022-10-24T06:44:23.541Z,23.37
2022-10-24T06:46:50.476Z,26.70
2022-10-24T06:49:17.599Z,23.80
2022-10-24T06:51:44.442Z,25.13
2022-10-24T06:54:11.331Z,26.10
2022-10-24T06:56:38.150Z,27.13
2022-10-24T06:59:14.108Z,21.53
2022-10-24T07:01:41.285Z,25.40
2022-10-24T07:04:08.712Z,22.60
2022-10-24T07:06:35.540Z,30.70
2022-10-24T07:09:04.893Z,27.00
2022-10-24T07:11:33.740Z,22.97
2022-10-24T07:14:01.854Z,24.30
2022-10-24T07:16:30.619Z,26.67
2022-10-24T07:18:57.570Z,21.83
2022-10-24T07:21:26.944Z,26.03
2022-10-24T07:23:54.922Z,29.00
2022-10-24T07:26:23.798Z,22.13
2022-10-24T07:28:54.800Z,24.40
2022-10-24T07:31:24.696Z,18.30
2022-10-24T07:33:52.938Z,21.90
2022-10-24T07:36:24.865Z,25.90
2022-10-24T07:38:54.354Z,31.80
2022-10-24T07:41:21.471Z,21.63
2022-10-24T07:43:48.291Z,27.70
2022-10-24T07:46:17.746Z,22.30
2022-10-24T07:48:45.012Z,18.70
2022-10-24T07:51:14.149Z,22.23
2022-10-24T07:53:42.028Z,21.63
2022-10-24T07:56:13.275Z,21.07
2022-10-24T07:58:40.640Z,22.87
2022-10-24T08:01:11.295Z,22.90
2022-10-24T08:03:38.284Z,22.87
2022-10-24T08:06:10.862Z,24.87
2022-10-24T08:08:38.403Z,23.97
2022-10-24T08:11:10.741Z,26.00
2022-10-24T08:13:37.567Z,25.27
2022-10-24T08:16:09.332Z,22.13
2022-10-24T08:18:39.559Z,22.23
2022-10-24T08:21:09.421Z,21.83
2022-10-24T08:23:40.329Z,21.10
2022-10-24T08:26:08.734Z,25.40
2022-10-24T08:28:36.123Z,20.27
2022-10-24T08:31:08.717Z,26.60
2022-10-24T08:33:35.857Z,21.83
2022-10-24T08:36:06.810Z,22.43
2022-10-24T08:38:33.835Z,18.30
2022-10-24T08:41:00.669Z,19.73
2022-10-24T08:43:27.662Z,19.97
2022-10-24T08:46:13.105Z,24.13
2022-10-24T08:48:58.669Z,20.03
2022-10-24T08:52:00.280Z,20.77
2022-10-24T08:54:34.120Z,20.57
2022-10-24T08:57:02.205Z,26.40
2022-10-24T08:59:30.753Z,23.87
2022-10-24T09:02:07.799Z,30.20
2022-10-24T09:04:44.091Z,17.20
2022-10-24T09:07:18.622Z,22.40
2022-10-24T09:09:51.724Z,21.73
2022-10-24T09:12:21.158Z,21.97
2022-10-24T09:14:55.848Z,17.83
2022-10-24T09:17:25.949Z,20.93
2022-10-24T09:19:55.656Z,33.23
2022-10-24T09:22:24.737Z,20.50
2022-10-24T09:25:05.204Z,18.10
2022-10-24T09:27:38.036Z,21.00
2022-10-24T09:30:07.690Z,33.57
2022-10-24T09:32:36.341Z,17.53
2022-10-24T09:35:19.873Z,14.87
2022-10-24T09:37:56.012Z,16.80
2022-10-24T09:40:40.992Z,15.93
2022-10-24T09:43:21.062Z,27.33
2022-10-24T09:45:52.160Z,16.93
2022-10-24T09:48:42.294Z,18.57
2022-10-24T09:51:16.939Z,15.93
2022-10-24T09:54:06.693Z,17.87
2022-10-24T09:56:42.196Z,14.00
2022-10-24T09:59:37.003Z,27.13
2022-10-24T10:02:19.649Z,20.50
2022-10-24T10:04:49.208Z,16.37
2022-10-24T10:07:25.511Z,13.00
2022-10-24T10:09:57.859Z,13.23
2022-10-24T10:12:39.836Z,15.87
2022-10-24T10:18:04.230Z,19.27
2022-10-24T10:20:42.766Z,15.50
2022-10-24T10:23:32.541Z,15.23
2022-10-24T10:26:16.463Z,18.33
2022-10-24T10:28:55.575Z,18.07
2022-10-24T10:31:46.829Z,15.73
2022-10-24T10:34:28.745Z,19.63
2022-10-24T10:37:23.459Z,17.50
2022-10-24T10:40:15.333Z,15.97
2022-10-24T10:43:10.646Z,19.60
2022-10-24T10:45:53.673Z,18.07
2022-10-24T10:48:38.852Z,15.97
2022-10-24T10:51:26.464Z,16.90
2022-10-24T10:54:21.499Z,13.63
2022-10-24T10:57:02.941Z,24.70
2022-10-24T10:59:48.479Z,22.57
2022-10-24T11:02:35.996Z,15.93
2022-10-24T11:05:21.490Z,16.80
2022-10-24T11:08:01.578Z,14.03
2022-10-24T11:10:33.869Z,15.13
2022-10-24T11:13:07.248Z,12.57
2022-10-24T11:15:40.292Z,20.27
2022-10-24T11:18:23.060Z,16.90
2022-10-24T11:20:53.361Z,15.83
2022-10-24T11:26:31.351Z,15.13
2022-10-24T11:29:20.004Z,12.80
2022-10-24T11:32:16.572Z,12.10
2022-10-24T11:35:00.731Z,15.97
2022-10-24T11:37:34.544Z,13.27
2022-10-24T11:40:12.026Z,14.33
2022-10-24T11:43:10.795Z,16.00
2022-10-24T11:45:58.053Z,15.00
2022-10-24T11:48:51.632Z,14.60
2022-10-24T11:51:27.547Z,18.03
2022-10-24T11:54:14.610Z,8.73
2022-10-24T11:56:59.614Z,14.20
2022-10-24T11:59:26.647Z,12.10
2022-10-24T12:01:56.575Z,8.87
2022-10-24T12:04:47.658Z,16.23
2022-10-24T12:07:31.622Z,9.80
2022-10-24T12:10:27.394Z,10.90
2022-10-24T12:13:23.994Z,11.33
2022-10-24T12:16:23.625Z,12.03
2022-10-24T12:19:02.566Z,9.30
2022-10-24T12:21:37.608Z,9.00
2022-10-24T12:24:04.903Z,9.90
2022-10-24T12:26:34.877Z,12.60
2022-10-24T12:29:06.540Z,10.37
2022-10-24T12:31:35.976Z,7.77
2022-10-24T12:34:20.725Z,7.77
2022-10-24T12:37:19.357Z,13.23
2022-10-24T12:39:54.823Z,11.37
2022-10-24T12:42:25.236Z,10.43
2022-10-24T12:45:32.113Z,11.60
2022-10-24T12:47:58.993Z,9.40
2022-10-24T12:50:27.614Z,10.70
2022-10-24T12:52:57.484Z,9.77
2022-10-24T12:55:47.618Z,11.90
2022-10-24T12:58:45.472Z,8.03
2022-10-24T13:01:35.823Z,9.60
2022-10-24T13:04:36.179Z,9.50
2022-10-24T13:07:21.751Z,8.40
2022-10-24T13:10:11.511Z,12.40
2022-10-24T13:15:42.429Z,6.70
2022-10-24T13:18:21.505Z,7.40
2022-10-24T13:21:05.798Z,7.33
2022-10-24T13:23:33.565Z,8.93
2022-10-24T13:26:00.501Z,10.03
2022-10-24T13:28:30.331Z,9.37
2022-10-24T13:31:00.311Z,8.17
2022-10-24T13:33:33.218Z,5.27
2022-10-24T13:36:05.987Z,6.00
2022-10-24T13:38:36.518Z,7.80
2022-10-24T13:41:05.121Z,8.10
2022-10-24T13:43:32.429Z,11.50
2022-10-24T13:46:08.357Z,7.73
2022-10-24T13:48:46.498Z,8.33
2022-10-24T13:51:20.343Z,9.60
2022-10-24T13:53:57.666Z,8.03
2022-10-24T13:56:24.632Z,8.70
2022-10-24T13:58:51.629Z,8.07
2022-10-24T14:01:25.519Z,7.17
2022-10-24T14:03:54.901Z,5.93
2022-10-24T14:06:30.844Z,8.73
2022-10-24T14:09:07.199Z,11.03
2022-10-24T14:11:39.402Z,7.43
2022-10-24T14:14:23.498Z,7.50
2022-10-24T14:17:28.803Z,8.57
2022-10-24T14:20:21.053Z,13.57
2022-10-24T14:22:48.317Z,12.87
2022-10-24T14:25:30.117Z,8.60
2022-10-24T14:28:20.598Z,7.30
2022-10-24T14:30:59.726Z,8.43
2022-10-24T14:33:29.464Z,15.10
2022-10-24T14:35:59.282Z,7.40
2022-10-24T14:38:27.778Z,12.73
2022-10-24T14:41:07.896Z,8.50
2022-10-24T14:43:40.030Z,11.50
2022-10-24T14:46:13.010Z,10.73
2022-10-24T14:48:49.715Z,7.20
2022-10-24T14:51:31.967Z,5.90
2022-10-24T14:54:01.933Z,6.50
2022-10-24T14:56:33.603Z,6.13
2022-10-24T14:59:06.676Z,8.97
2022-10-24T15:01:33.575Z,7.03
2022-10-24T15:04:02.720Z,7.97
2022-10-24T15:06:38.423Z,8.30
2022-10-24T15:09:11.420Z,8.30
2022-10-24T15:11:41.185Z,11.27
2022-10-24T15:14:36.080Z,10.23
2022-10-24T15:17:18.853Z,11.53
2022-10-24T15:19:47.104Z,7.70
2022-10-24T15:22:35.400Z,9.77
2022-10-24T15:25:06.639Z,10.50
2022-10-24T15:27:43.326Z,12.37
2022-10-24T15:30:14.783Z,11.30
2022-10-24T15:32:41.637Z,7.00
2022-10-24T15:35:08.671Z,9.60
2022-10-24T15:37:35.923Z,11.67
2022-10-24T15:40:15.207Z,8.23
2022-10-24T15:42:42.078Z,12.10
2022-10-24T15:45:17.423Z,7.27
2022-10-24T15:47:47.469Z,8.40
2022-10-24T15:50:16.600Z,10.57
2022-10-24T15:52:49.079Z,13.77
2022-10-24T15:55:27.769Z,8.93
2022-10-24T15:57:57.268Z,10.30
2022-10-24T16:00:25.704Z,12.40
2022-10-24T16:02:56.631Z,8.40
2022-10-24T16:05:26.126Z,12.83
2022-10-24T16:07:53.247Z,17.53
2022-10-24T16:10:22.092Z,7.53
2022-10-24T16:12:49.995Z,8.23
2022-10-24T16:15:24.548Z,14.00
2022-10-24T16:17:51.560Z,12.30
2022-10-24T16:20:18.902Z,11.00
2022-10-24T16:22:46.737Z,10.77
2022-10-24T16:25:23.327Z,14.50
2022-10-24T16:27:51.222Z,10.93
2022-10-24T16:30:20.505Z,10.50
2022-10-24T16:32:47.942Z,13.57
2022-10-24T16:35:39.133Z,13.70
2022-10-24T16:38:08.366Z,11.60
2022-10-24T16:40:44.241Z,9.80
2022-10-24T16:43:13.304Z,13.23
2022-10-24T16:45:40.492Z,15.13
2022-10-24T16:48:07.468Z,12.30
2022-10-24T16:50:34.401Z,14.13
2022-10-24T16:53:04.031Z,13.50
2022-10-24T16:55:32.134Z,11.77
2022-10-24T16:57:59.290Z,16.37
2022-10-24T17:00:27.059Z,11.80
2022-10-24T17:02:55.363Z,20.23
2022-10-24T17:05:25.207Z,19.33
2022-10-24T17:07:52.362Z,11.37
2022-10-24T17:10:22.153Z,16.47
2022-10-24T17:12:52.009Z,16.33
2022-10-24T17:15:22.057Z,23.23
2022-10-24T17:17:49.913Z,11.67
2022-10-24T17:20:17.395Z,24.33
2022-10-24T17:22:46.629Z,19.00
2022-10-24T17:25:23.721Z,15.00
2022-10-24T17:27:50.943Z,17.03
2022-10-24T17:30:23.522Z,13.73
2022-10-24T17:32:50.853Z,18.47
2022-10-24T17:35:20.697Z,17.43
2022-10-24T17:38:13.097Z,21.30
2022-10-24T17:40:47.383Z,17.83
2022-10-24T17:43:22.657Z,16.00
2022-10-24T17:45:50.507Z,16.10
2022-10-24T17:48:18.139Z,20.30
2022-10-24T17:50:45.700Z,15.43
2022-10-24T17:53:14.466Z,17.83
2022-10-24T17:55:46.732Z,33.27
2022-10-24T17:58:15.747Z,23.20
2022-10-24T18:00:44.133Z,14.03
2022-10-24T18:03:11.544Z,19.43
2022-10-24T18:05:38.999Z,22.33
2022-10-24T18:08:08.053Z,19.20
2022-10-24T18:10:37.502Z,20.33
2022-10-24T18:13:04.859Z,14.10
2022-10-24T18:15:32.258Z,19.67
2022-10-24T18:18:03.636Z,23.07
2022-10-24T18:20:32.224Z,26.37
2022-10-24T18:23:00.059Z,22.63
2022-10-24T18:25:27.424Z,19.50
2022-10-24T18:27:56.460Z,18.57
2022-10-24T18:30:23.640Z,14.60
2022-10-24T18:32:50.679Z,15.53
2022-10-24T18:35:17.876Z,14.17
2022-10-24T18:37:45.148Z,20.20
2022-10-24T18:40:12.895Z,18.70
2022-10-24T18:43:01.297Z,26.90
2022-10-24T18:45:29.367Z,15.10
2022-10-24T18:47:56.881Z,24.23
2022-10-24T18:50:25.242Z,24.63
2022-10-24T18:53:05.941Z,24.53
2022-10-24T18:55:34.855Z,20.07
2022-10-24T18:58:02.190Z,24.10
2022-10-24T19:00:31.882Z,20.60
2022-10-24T19:03:18.270Z,20.30
2022-10-24T19:05:51.895Z,16.17
2022-10-24T19:08:27.229Z,23.30
2022-10-24T19:10:56.473Z,15.00
2022-10-24T19:13:27.664Z,19.80
2022-10-24T19:16:00.482Z,17.60
2022-10-24T19:18:30.472Z,19.43
2022-10-24T19:20:57.332Z,26.60
2022-10-24T19:23:24.826Z,19.20
2022-10-24T19:25:52.046Z,20.50
2022-10-24T19:28:20.060Z,26.50
2022-10-24T19:30:48.270Z,18.70
2022-10-24T19:33:16.533Z,29.40
2022-10-24T19:35:47.431Z,16.77
2022-10-24T19:38:18.280Z,24.20
2022-10-24T19:40:46.259Z,18.83
2022-10-24T19:43:13.880Z,19.13
2022-10-24T19:45:49.890Z,19.60
2022-10-24T19:48:22.990Z,20.97
2022-10-24T19:50:50.476Z,23.93
2022-10-24T19:53:18.210Z,23.50
2022-10-24T19:55:45.018Z,28.67
2022-10-24T19:58:14.894Z,26.20
2022-10-24T20:00:41.938Z,22.57
2022-10-24T20:03:08.842Z,17.73
2022-10-24T20:05:36.269Z,19.80
2022-10-24T20:08:03.091Z,21.87
2022-10-24T20:10:30.153Z,22.00
2022-10-24T20:12:57.164Z,23.37
2022-10-24T20:15:23.942Z,21.03
2022-10-24T20:17:50.896Z,22.07
2022-10-24T20:20:19.823Z,19.47
2022-10-24T20:22:47.053Z,17.70
2022-10-24T20:25:14.094Z,20.97
2022-10-24T20:27:40.928Z,19.20
2022-10-24T20:30:08.513Z,24.60
2022-10-24T20:32:35.338Z,24.67
2022-10-24T20:35:02.204Z,24.83
2022-10-24T20:37:29.017Z,21.47
2022-10-24T20:39:55.890Z,22.23
2022-10-24T20:42:22.889Z,20.47
2022-10-24T20:44:51.029Z,22.30
2022-10-24T20:47:17.854Z,21.07
2022-10-24T20:49:44.685Z,24.00
2022-10-24T20:54:43.271Z,22.47
2022-10-24T20:57:10.064Z,27.30
2022-10-24T20:59:36.886Z,24.77
2022-10-24T21:02:03.846Z,24.37
2022-10-24T21:04:30.826Z,22.53
2022-10-24T21:06:57.646Z,18.70
2022-10-24T21:09:24.514Z,24.10
2022-10-24T21:11:51.473Z,21.40
2022-10-24T21:14:20.628Z,28.43
2022-10-24T21:16:48.243Z,21.70
2022-10-24T21:19:15.104Z,25.70
2022-10-24T21:21:41.952Z,22.57
2022-10-24T21:24:16.464Z,22.63
2022-10-24T21:26:43.240Z,25.43
2022-10-24T21:31:57.489Z,22.27
2022-10-24T21:34:25.834Z,21.20
2022-10-24T21:36:54.548Z,25.73
2022-10-24T21:39:21.353Z,22.80
2022-10-24T21:41:48.254Z,22.83
2022-10-24T21:44:15.275Z,22.23
2022-10-24T21:46:42.154Z,21.23
2022-10-24T21:49:10.404Z,24.27
2022-10-24T21:51:37.651Z,16.67
2022-10-24T21:54:08.097Z,22.20
2022-10-24T21:56:39.541Z,20.13
2022-10-24T21:59:10.806Z,17.23
2022-10-24T22:01:38.347Z,18.97
2022-10-24T22:04:08.858Z,18.70
2022-10-24T22:06:36.448Z,23.00
2022-10-24T22:09:05.813Z,25.03
2022-10-24T22:11:35.222Z,14.60
2022-10-24T22:14:03.417Z,21.27
2022-10-24T22:16:31.720Z,26.43
2022-10-24T22:19:02.975Z,16.93
2022-10-24T22:21:31.895Z,17.70
2022-10-24T22:24:00.791Z,26.57
2022-10-24T22:26:27.968Z,24.00
2022-10-24T22:28:57.934Z,22.70
2022-10-24T22:31:27.405Z,22.33
2022-10-24T22:33:56.232Z,20.10
2022-10-24T22:36:57.047Z,14.00
2022-10-24T22:39:25.639Z,15.20
2022-10-24T22:41:52.985Z,13.77
2022-10-24T22:44:21.023Z,25.73
2022-10-24T22:47:08.975Z,21.00
2022-10-24T22:49:44.591Z,13.50
2022-10-24T22:52:12.336Z,16.30
2022-10-24T22:54:39.900Z,17.67
2022-10-24T22:57:07.230Z,18.80
2022-10-24T22:59:34.572Z,17.87
2022-10-24T23:02:22.958Z,19.37
2022-10-24T23:05:23.916Z,14.93
2022-10-24T23:08:07.204Z,15.17
2022-10-24T23:10:36.458Z,13.33
2022-10-24T23:13:03.808Z,14.30
2022-10-24T23:15:30.957Z,15.57
2022-10-24T23:17:58.057Z,12.10
2022-10-24T23:20:34.454Z,16.00
2022-10-24T23:23:16.407Z,15.87
2022-10-24T23:26:03.687Z,23.10
2022-10-24T23:28:48.452Z,13.90
2022-10-24T23:31:15.418Z,14.33
2022-10-24T23:33:42.458Z,14.63
2022-10-24T23:36:19.711Z,18.53
2022-10-24T23:38:47.005Z,14.63
2022-10-24T23:41:14.230Z,10.43
2022-10-24T23:43:41.243Z,10.93
2022-10-24T23:46:20.949Z,13.93
2022-10-24T23:49:00.833Z,16.87
2022-10-24T23:51:39.833Z,10.90
2022-10-24T23:54:10.302Z,19.87
2022-10-24T23:56:37.597Z,12.67
2022-10-24T23:59:04.863Z,13.53
